Terminal Aerodrome Forecast
Issued by NWS

Home | Current Version | Previous Version | Text Only | Print | Product List | Glossary On
Versions: 1 2 3 4 5 6 7 8 9 10 11 12 13 14 15 16 17 18 19 20
000
FTUS45 KRIW 171907 AAA
TAFCOD
TAF AMD
KCOD 171907Z 1719/1818 26016G26KT P6SM SCT120
     FM180200 23020G37KT P6SM BKN250 WS015/24055KT
     FM180800 06014KT P6SM VCSH BKN035 OVC050
     FM181500 01010G20KT 3SM -SN OVC030
      AMD LTD TO CLD VIS AND WIND=

USA.gov is the U.S. government's official web portal to all federal, state and local government web resources and services.